Time;durP1;ratioP1;P1;durP2;ratioP2;P2;SDS_P1;SDS_P2;PMS_P1;PMS_P2;Temp;Humidity;BMP_temperature;BMP_pressure;BME280_temperature;BME280_humidity;BME280_pressure;Samples;Min_cycle;Max_cycle;Signal;HPM_P1;HPM_P2
2021/06/28 00:00:29;;;;;;;2.97;2.40;;;17.60;99.90;;;;;;5020545;28;20341;-59
2021/06/28 00:02:56;;;;;;;6.20;2.37;;;17.60;99.90;;;;;;5020824;28;20180;-60
2021/06/28 00:05:22;;;;;;;2.80;2.60;;;17.60;99.90;;;;;;5020069;28;21220;-59
2021/06/28 00:07:48;;;;;;;3.80;2.70;;;17.60;99.90;;;;;;5024682;28;20434;-58
2021/06/28 00:10:20;;;;;;;3.93;2.60;;;17.70;99.90;;;;;;5021813;28;20175;-59
2021/06/28 00:12:49;;;;;;;3.67;2.50;;;17.60;99.90;;;;;;5022508;28;20999;-59
2021/06/28 00:15:21;;;;;;;4.33;2.40;;;17.60;99.90;;;;;;5014106;28;20435;-59
2021/06/28 00:17:48;;;;;;;2.40;2.20;;;17.60;99.90;;;;;;5020285;28;20515;-58
2021/06/28 00:20:14;;;;;;;3.67;2.53;;;17.60;99.90;;;;;;5026540;28;20415;-66
2021/06/28 00:22:44;;;;;;;2.70;2.50;;;17.60;99.90;;;;;;5020970;28;20442;-59
2021/06/28 00:25:13;;;;;;;3.37;2.27;;;17.60;99.90;;;;;;5019246;28;20172;-59
2021/06/28 00:27:41;;;;;;;2.93;2.63;;;17.60;99.90;;;;;;5025516;28;20498;-59
2021/06/28 00:30:08;;;;;;;3.30;2.37;;;17.60;99.90;;;;;;5027043;28;20506;-59
2021/06/28 00:32:34;;;;;;;2.67;2.47;;;17.60;99.90;;;;;;5015607;28;20468;-60
2021/06/28 00:35:00;;;;;;;5.07;2.47;;;17.60;99.90;;;;;;5024827;28;20437;-59
2021/06/28 00:37:26;;;;;;;3.40;2.30;;;17.60;99.90;;;;;;5015695;28;20459;-59
2021/06/28 00:39:51;;;;;;;6.20;2.50;;;17.60;99.90;;;;;;5025513;28;20182;-59
2021/06/28 00:42:17;;;;;;;2.10;2.00;;;17.50;99.90;;;;;;5024081;28;20679;-59
2021/06/28 00:44:43;;;;;;;2.70;2.20;;;17.40;99.90;;;;;;5028211;28;20176;-59
2021/06/28 00:47:09;;;;;;;2.50;2.30;;;17.40;99.90;;;;;;5029702;28;20223;-59
2021/06/28 00:49:35;;;;;;;2.10;2.00;;;17.40;99.90;;;;;;5028720;28;20480;-59
2021/06/28 00:52:00;;;;;;;4.00;2.40;;;17.40;99.90;;;;;;5023050;28;20302;-59
2021/06/28 00:54:26;;;;;;;3.10;2.57;;;17.40;99.90;;;;;;5030435;28;20168;-59
2021/06/28 00:56:52;;;;;;;2.37;2.17;;;17.40;99.90;;;;;;5009662;28;20198;-59
2021/06/28 00:59:20;;;;;;;2.60;2.40;;;17.40;99.90;;;;;;5019464;28;20195;-60
2021/06/28 01:01:45;;;;;;;4.37;2.60;;;17.40;99.90;;;;;;5027214;28;20422;-59
2021/06/28 01:04:11;;;;;;;6.03;2.50;;;17.30;99.90;;;;;;5026355;28;20445;-58
2021/06/28 01:06:37;;;;;;;2.80;2.50;;;17.30;99.90;;;;;;5025929;28;20215;-59
2021/06/28 01:09:03;;;;;;;3.50;2.57;;;17.30;99.90;;;;;;5028287;28;20521;-60
2021/06/28 01:11:29;;;;;;;4.10;2.30;;;17.30;99.90;;;;;;5031064;28;20607;-59
2021/06/28 01:13:54;;;;;;;3.30;2.57;;;17.30;99.90;;;;;;5026675;28;20942;-60
2021/06/28 01:16:20;;;;;;;2.93;2.27;;;17.40;99.90;;;;;;5025057;28;20196;-60
2021/06/28 01:18:46;;;;;;;2.60;2.40;;;17.40;99.90;;;;;;5009787;28;20197;-59
2021/06/28 01:21:12;;;;;;;2.33;2.13;;;17.40;99.90;;;;;;5025374;28;20652;-60
2021/06/28 01:23:38;;;;;;;2.67;2.20;;;17.40;99.90;;;;;;5027272;28;20437;-61
2021/06/28 01:26:09;;;;;;;4.07;2.43;;;17.40;99.90;;;;;;5023309;28;20462;-60
2021/06/28 01:28:36;;;;;;;1.93;1.83;;;17.30;99.90;;;;;;5027492;28;20434;-61
2021/06/28 01:31:10;;;;;;;2.40;2.10;;;17.30;99.90;;;;;;5019531;28;20747;-60
2021/06/28 01:33:36;;;;;;;2.43;2.23;;;17.30;99.90;;;;;;5025153;28;20430;-60
2021/06/28 01:36:03;;;;;;;6.30;2.17;;;17.20;99.90;;;;;;5006822;28;20486;-59
2021/06/28 01:38:29;;;;;;;5.63;2.33;;;17.20;99.90;;;;;;5002311;28;20494;-60
2021/06/28 01:40:55;;;;;;;4.30;2.30;;;17.10;99.90;;;;;;5028106;28;20600;-59
2021/06/28 01:43:23;;;;;;;2.40;2.30;;;17.10;99.90;;;;;;5026757;28;20492;-59
2021/06/28 01:45:53;;;;;;;2.63;2.43;;;17.00;99.90;;;;;;5027350;28;20200;-60
2021/06/28 01:48:20;;;;;;;3.50;1.97;;;17.00;99.90;;;;;;5027486;28;21060;-61
2021/06/28 01:50:48;;;;;;;3.00;2.30;;;17.00;99.90;;;;;;5028020;28;20860;-60
2021/06/28 01:53:14;;;;;;;2.43;2.00;;;17.00;99.90;;;;;;5030170;28;20419;-59
2021/06/28 01:55:40;;;;;;;2.33;2.20;;;16.90;99.90;;;;;;5025936;28;21026;-59
2021/06/28 01:58:08;;;;;;;2.83;2.53;;;16.90;99.90;;;;;;5027760;28;20176;-58
2021/06/28 02:00:44;;;;;;;4.00;2.43;;;16.90;99.90;;;;;;5023944;28;20225;-58
2021/06/28 02:03:12;;;;;;;4.20;2.67;;;16.90;99.90;;;;;;5018778;28;20426;-60
2021/06/28 02:05:50;;;;;;;2.03;1.93;;;16.80;99.90;;;;;;5023388;28;20447;-60
2021/06/28 02:08:18;;;;;;;3.90;2.50;;;16.80;99.90;;;;;;5019248;28;20495;-60
2021/06/28 02:10:49;;;;;;;3.27;2.40;;;16.80;99.90;;;;;;5025192;28;20461;-59
2021/06/28 02:13:17;;;;;;;2.50;2.30;;;16.70;99.90;;;;;;5022759;28;20814;-59
2021/06/28 02:15:42;;;;;;;3.57;2.10;;;16.70;99.90;;;;;;5021766;28;20470;-59
2021/06/28 02:18:08;;;;;;;3.83;2.63;;;16.60;99.90;;;;;;5030326;28;20435;-60
2021/06/28 02:20:34;;;;;;;3.47;2.70;;;16.60;99.90;;;;;;5024065;28;20328;-58
2021/06/28 02:23:19;;;;;;;3.03;2.27;;;16.60;99.90;;;;;;5014098;28;20574;-60
2021/06/28 02:25:45;;;;;;;3.17;2.47;;;16.50;99.90;;;;;;5017620;28;20196;-59
2021/06/28 02:28:10;;;;;;;3.53;2.50;;;16.50;99.90;;;;;;5024122;28;21818;-58
2021/06/28 02:30:36;;;;;;;2.80;2.40;;;16.50;99.90;;;;;;5028130;28;20203;-59
2021/06/28 02:33:02;;;;;;;2.73;2.37;;;16.50;99.90;;;;;;5026678;28;20176;-58
2021/06/28 02:35:27;;;;;;;4.10;2.60;;;16.50;99.90;;;;;;5019046;28;20724;-59
2021/06/28 02:37:53;;;;;;;5.17;2.40;;;16.50;99.90;;;;;;5020311;28;20172;-65
2021/06/28 02:40:18;;;;;;;3.20;2.60;;;16.50;99.90;;;;;;5024306;28;20681;-59
2021/06/28 02:42:44;;;;;;;3.40;2.40;;;16.40;99.90;;;;;;5025997;28;20528;-59
2021/06/28 02:45:10;;;;;;;2.80;2.60;;;16.40;99.90;;;;;;5024601;28;20508;-59
2021/06/28 02:47:37;;;;;;;2.30;2.20;;;16.40;99.90;;;;;;5028228;28;20200;-58
2021/06/28 02:50:11;;;;;;;2.60;2.40;;;16.40;99.90;;;;;;4994271;28;22855;-57
2021/06/28 02:52:37;;;;;;;3.97;2.30;;;16.30;99.90;;;;;;5022569;28;20524;-57
2021/06/28 02:55:05;;;;;;;2.67;2.47;;;16.30;99.90;;;;;;5027899;28;20427;-59
2021/06/28 02:57:31;;;;;;;5.93;3.13;;;16.30;99.90;;;;;;5021804;28;20954;-59
2021/06/28 02:59:57;;;;;;;5.23;2.53;;;16.20;99.90;;;;;;5024276;28;20521;-58
2021/06/28 03:02:23;;;;;;;2.90;2.23;;;16.20;99.90;;;;;;5003436;28;20513;-60
2021/06/28 03:04:49;;;;;;;2.57;2.33;;;16.20;99.90;;;;;;5024913;28;20179;-60
2021/06/28 03:07:14;;;;;;;3.77;2.60;;;16.20;99.90;;;;;;5023711;28;20630;-59
2021/06/28 03:09:40;;;;;;;2.70;2.50;;;16.10;99.90;;;;;;5026531;28;20660;-60
2021/06/28 03:12:06;;;;;;;9.70;2.27;;;16.10;99.90;;;;;;5020166;28;20664;-58
2021/06/28 03:14:32;;;;;;;5.47;2.20;;;16.10;99.90;;;;;;5019894;28;20243;-59
2021/06/28 03:16:57;;;;;;;2.80;2.60;;;16.10;99.90;;;;;;5016756;28;20577;-59
2021/06/28 03:19:23;;;;;;;2.47;2.23;;;16.10;99.90;;;;;;5021649;28;20175;-60
2021/06/28 03:21:48;;;;;;;3.83;2.40;;;16.10;99.90;;;;;;5019754;28;20203;-60
2021/06/28 03:24:14;;;;;;;3.73;2.73;;;16.00;99.90;;;;;;5022053;28;20217;-59
2021/06/28 03:26:40;;;;;;;3.87;2.73;;;16.00;99.90;;;;;;5025992;28;20694;-60
2021/06/28 03:29:05;;;;;;;3.00;2.50;;;16.00;99.90;;;;;;5025703;28;20183;-60
2021/06/28 03:31:32;;;;;;;5.20;3.10;;;16.00;99.90;;;;;;5028073;28;20231;-59
2021/06/28 03:33:59;;;;;;;4.07;3.10;;;16.00;99.90;;;;;;5026029;28;20172;-60
2021/06/28 03:36:25;;;;;;;7.50;3.20;;;16.00;99.90;;;;;;5020407;28;20469;-60
2021/06/28 03:38:51;;;;;;;10.60;4.30;;;16.00;99.90;;;;;;5024264;28;20433;-59
2021/06/28 03:41:16;;;;;;;4.93;3.70;;;16.00;99.90;;;;;;5025907;28;20948;-59
2021/06/28 03:43:44;;;;;;;5.23;4.10;;;16.00;99.90;;;;;;5025227;28;20226;-59
2021/06/28 03:46:10;;;;;;;4.37;3.60;;;16.00;99.90;;;;;;5020407;28;20216;-59
2021/06/28 03:48:36;;;;;;;7.13;4.83;;;16.00;99.90;;;;;;5023792;28;20462;-61
2021/06/28 03:51:02;;;;;;;9.63;5.43;;;16.00;99.90;;;;;;5017273;28;20192;-61
2021/06/28 03:53:28;;;;;;;31.83;17.67;;;16.00;99.90;;;;;;5001477;28;20754;-61
2021/06/28 03:55:53;;;;;;;19.63;6.90;;;16.00;99.90;;;;;;5000524;28;20454;-59
2021/06/28 03:58:19;;;;;;;8.30;5.60;;;16.00;99.90;;;;;;5026105;28;20274;-59
2021/06/28 04:00:45;;;;;;;12.07;6.70;;;16.10;99.90;;;;;;5017904;28;20218;-59
2021/06/28 04:03:12;;;;;;;14.67;8.27;;;16.10;99.90;;;;;;5019753;28;20183;-59
2021/06/28 04:05:39;;;;;;;15.73;8.87;;;16.10;99.90;;;;;;5015449;28;20888;-59
2021/06/28 04:08:05;;;;;;;14.70;8.43;;;16.10;99.90;;;;;;5012160;28;20488;-60
2021/06/28 04:10:30;;;;;;;11.00;6.50;;;16.10;99.90;;;;;;5004474;28;20438;-62
2021/06/28 04:12:56;;;;;;;13.20;7.60;;;16.10;99.90;;;;;;5013525;28;20176;-58
2021/06/28 04:15:23;;;;;;;15.70;8.00;;;16.20;99.90;;;;;;5010416;28;20187;-61
2021/06/28 04:17:54;;;;;;;12.80;8.70;;;16.20;99.90;;;;;;5017879;28;20168;-61
2021/06/28 04:20:23;;;;;;;9.47;6.67;;;16.10;99.90;;;;;;5020878;28;20430;-59
2021/06/28 04:22:49;;;;;;;14.67;8.07;;;16.10;99.90;;;;;;5019404;28;20787;-59
2021/06/28 04:25:18;;;;;;;17.47;8.47;;;16.20;99.90;;;;;;5015831;28;20422;-58
2021/06/28 04:27:44;;;;;;;11.17;6.70;;;16.20;99.90;;;;;;5023302;28;20434;-59
2021/06/28 04:30:11;;;;;;;14.27;7.80;;;16.20;99.90;;;;;;5015571;28;20465;-59
2021/06/28 04:32:38;;;;;;;12.93;6.27;;;16.20;99.90;;;;;;5016069;28;20516;-58
2021/06/28 04:35:06;;;;;;;9.60;6.20;;;16.20;99.90;;;;;;5015710;28;21033;-59
2021/06/28 04:37:31;;;;;;;13.43;8.20;;;16.20;99.90;;;;;;5011079;28;21104;-59
2021/06/28 04:39:58;;;;;;;15.70;8.67;;;16.20;99.90;;;;;;5001650;28;20426;-56
2021/06/28 04:42:23;;;;;;;10.30;7.63;;;16.20;99.90;;;;;;5023829;28;20237;-58
2021/06/28 04:44:49;;;;;;;8.73;5.93;;;16.20;99.90;;;;;;5024469;28;20833;-58
2021/06/28 04:47:14;;;;;;;13.00;8.90;;;16.20;99.90;;;;;;5023253;28;20655;-56
2021/06/28 04:49:40;;;;;;;18.40;10.47;;;16.20;99.90;;;;;;5021081;28;20211;-59
2021/06/28 04:52:06;;;;;;;35.53;18.03;;;16.20;99.90;;;;;;4999231;28;20216;-59
2021/06/28 04:54:32;;;;;;;39.53;17.50;;;16.20;99.90;;;;;;5021612;28;20260;-59
2021/06/28 04:56:57;;;;;;;59.53;20.07;;;16.30;99.90;;;;;;5026885;28;20545;-59
2021/06/28 04:59:23;;;;;;;50.60;22.20;;;16.30;99.90;;;;;;5019186;28;20164;-60
2021/06/28 05:01:49;;;;;;;43.93;18.60;;;16.30;99.90;;;;;;5017302;28;20196;-58
2021/06/28 05:04:14;;;;;;;36.83;16.93;;;16.30;99.90;;;;;;5022954;28;20199;-60
2021/06/28 05:06:40;;;;;;;39.50;17.50;;;16.30;99.90;;;;;;4997138;28;20693;-60
2021/06/28 05:09:08;;;;;;;33.30;16.20;;;16.30;99.90;;;;;;5017397;28;20182;-59
2021/06/28 05:11:35;;;;;;;21.97;12.83;;;16.40;99.90;;;;;;5018852;28;20942;-59
2021/06/28 05:14:00;;;;;;;29.17;14.47;;;16.40;99.90;;;;;;5023088;28;20426;-59
2021/06/28 05:16:26;;;;;;;37.97;15.77;;;16.50;99.90;;;;;;5022253;28;20465;-60
2021/06/28 05:18:51;;;;;;;40.63;15.50;;;16.50;99.90;;;;;;5019695;28;20180;-59
2021/06/28 05:21:17;;;;;;;39.23;16.90;;;16.50;99.90;;;;;;5017893;28;20211;-59
2021/06/28 05:23:43;;;;;;;41.87;16.03;;;16.50;99.90;;;;;;5006778;28;20172;-60
2021/06/28 05:26:08;;;;;;;51.90;20.40;;;16.50;99.90;;;;;;5019815;28;20297;-60
2021/06/28 05:28:34;;;;;;;32.97;15.47;;;16.60;99.90;;;;;;5027962;28;20179;-60
2021/06/28 05:31:00;;;;;;;19.53;10.73;;;16.60;99.90;;;;;;5024765;28;20781;-60
2021/06/28 05:33:26;;;;;;;24.97;11.93;;;16.60;99.90;;;;;;5021340;28;20693;-61
2021/06/28 05:35:52;;;;;;;13.03;9.00;;;16.60;99.90;;;;;;5027420;28;20450;-59
2021/06/28 05:38:17;;;;;;;21.70;10.00;;;16.60;99.90;;;;;;5028994;28;20895;-59
2021/06/28 05:40:43;;;;;;;10.93;8.23;;;16.50;99.90;;;;;;5016259;28;20171;-59
2021/06/28 05:43:08;;;;;;;13.63;6.23;;;16.50;99.90;;;;;;5017084;28;20168;-59
2021/06/28 05:45:34;;;;;;;15.63;9.37;;;16.50;99.90;;;;;;5025166;28;20251;-61
2021/06/28 05:48:00;;;;;;;18.40;10.27;;;16.60;99.90;;;;;;5027978;28;20172;-60
2021/06/28 05:50:26;;;;;;;14.70;7.57;;;16.50;99.90;;;;;;5025047;28;20172;-60
2021/06/28 05:52:52;;;;;;;13.20;8.87;;;16.50;99.90;;;;;;5020542;28;20171;-59
2021/06/28 05:55:18;;;;;;;23.07;13.60;;;16.60;99.90;;;;;;5025622;28;20466;-59
2021/06/28 05:57:44;;;;;;;28.23;14.80;;;16.70;99.90;;;;;;5010810;28;21324;-59
2021/06/28 06:00:11;;;;;;;37.83;18.20;;;16.80;99.90;;;;;;5018434;28;20518;-59
2021/06/28 06:02:37;;;;;;;37.87;18.43;;;16.90;99.90;;;;;;5021981;28;20794;-61
2021/06/28 06:05:07;;;;;;;14.27;9.73;;;17.00;99.90;;;;;;5021502;28;20419;-60
2021/06/28 06:07:37;;;;;;;6.80;6.10;;;17.20;99.90;;;;;;5023046;28;20282;-61
2021/06/28 06:10:05;;;;;;;6.60;5.13;;;17.30;99.90;;;;;;5019006;28;20453;-60
2021/06/28 06:12:31;;;;;;;6.07;5.47;;;17.40;99.90;;;;;;5027992;28;20501;-60
2021/06/28 06:14:57;;;;;;;10.00;7.60;;;17.40;99.90;;;;;;5014987;28;20458;-60
2021/06/28 06:17:22;;;;;;;8.30;6.97;;;17.40;99.90;;;;;;5019702;28;20204;-60
2021/06/28 06:19:48;;;;;;;5.87;4.90;;;17.40;99.90;;;;;;5026116;28;20183;-60
2021/06/28 06:22:14;;;;;;;6.57;5.17;;;17.40;99.90;;;;;;5026765;28;20702;-63
2021/06/28 06:27:38;;;;;;;4.80;4.30;;;17.60;99.90;;;;;;4978949;28;20215;-59
2021/06/28 06:30:05;;;;;;;5.10;4.60;;;17.60;99.90;;;;;;5024246;28;20945;-58
2021/06/28 06:32:31;;;;;;;7.30;4.93;;;17.60;99.90;;;;;;5024847;28;20672;-60
2021/06/28 06:34:56;;;;;;;9.07;5.40;;;17.70;99.90;;;;;;5013376;28;20442;-59
2021/06/28 06:37:22;;;;;;;7.40;4.80;;;17.70;99.90;;;;;;5024024;28;20226;-60
2021/06/28 06:39:48;;;;;;;8.23;4.60;;;17.70;99.90;;;;;;5009561;28;20290;-59
2021/06/28 06:42:14;;;;;;;9.00;5.20;;;17.80;99.90;;;;;;5026620;28;20430;-59
2021/06/28 06:44:40;;;;;;;7.70;4.40;;;17.90;99.90;;;;;;5015891;28;20800;-59
2021/06/28 06:47:05;;;;;;;4.10;3.70;;;18.10;99.90;;;;;;5024010;28;20203;-59
2021/06/28 06:49:31;;;;;;;3.50;3.20;;;18.30;99.90;;;;;;5027484;28;20184;-60
2021/06/28 06:51:57;;;;;;;3.83;3.53;;;18.40;99.90;;;;;;5024827;28;20653;-60
2021/06/28 06:54:22;;;;;;;3.77;3.23;;;18.50;99.90;;;;;;5024437;28;20168;-60
2021/06/28 06:56:48;;;;;;;5.60;3.80;;;18.50;99.90;;;;;;5027872;28;20192;-62
2021/06/28 06:59:14;;;;;;;3.97;3.60;;;18.70;99.90;;;;;;5028511;28;20711;-59
2021/06/28 07:01:41;;;;;;;5.60;3.83;;;18.80;99.90;;;;;;5021565;28;20190;-60
2021/06/28 07:04:07;;;;;;;19.63;6.60;;;18.90;99.90;;;;;;5025923;28;20176;-59
2021/06/28 07:06:32;;;;;;;15.37;7.53;;;19.10;99.90;;;;;;5005913;28;20454;-60
2021/06/28 07:08:58;;;;;;;11.60;6.73;;;19.30;99.90;;;;;;5008471;28;20183;-58
2021/06/28 07:11:25;;;;;;;8.93;5.40;;;19.40;99.90;;;;;;5026567;28;20188;-60
2021/06/28 07:13:52;;;;;;;13.13;6.27;;;19.60;99.90;;;;;;5026542;28;20188;-59
2021/06/28 07:16:20;;;;;;;12.47;6.30;;;19.80;99.90;;;;;;5022112;28;20457;-60
2021/06/28 07:18:46;;;;;;;12.30;6.47;;;19.90;99.90;;;;;;5009847;28;20506;-59
2021/06/28 07:21:12;;;;;;;6.93;5.60;;;20.00;99.90;;;;;;5016016;28;20435;-59
2021/06/28 07:27:27;;;;;;;12.13;4.60;;;20.30;99.90;;;;;;4976925;28;20454;-61
2021/06/28 07:29:59;;;;;;;10.20;6.20;;;20.30;99.90;;;;;;5027268;28;20422;-61
2021/06/28 08:02:22;;;;;;;6.37;3.13;;;21.70;99.90;;;;;;5010878;28;20995;-55
2021/06/28 08:04:48;;;;;;;3.40;2.90;;;21.80;99.90;;;;;;5018034;28;20454;-57
2021/06/28 08:07:14;;;;;;;5.00;3.10;;;22.00;99.90;;;;;;5016155;28;20187;-56
2021/06/28 08:09:39;;;;;;;4.37;2.63;;;22.00;99.90;;;;;;5023077;28;20455;-57
2021/06/28 08:12:05;;;;;;;2.87;2.67;;;22.10;99.90;;;;;;5019378;28;20234;-56
2021/06/28 08:14:31;;;;;;;3.00;2.80;;;22.10;99.90;;;;;;5024603;28;20263;-56
2021/06/28 08:16:57;;;;;;;3.70;2.70;;;22.20;99.90;;;;;;5016327;28;20517;-59
2021/06/28 08:19:22;;;;;;;2.97;2.77;;;22.30;99.90;;;;;;5022663;28;20690;-57
2021/06/28 08:21:48;;;;;;;5.17;2.53;;;22.40;99.90;;;;;;5021040;28;20206;-56
2021/06/28 08:24:15;;;;;;;3.40;3.03;;;22.40;99.90;;;;;;5009067;28;20176;-57
2021/06/28 08:26:41;;;;;;;2.93;2.73;;;22.50;99.90;;;;;;5020822;28;20444;-59
2021/06/28 08:29:07;;;;;;;2.63;2.43;;;22.60;99.90;;;;;;5019552;28;20544;-56
2021/06/28 08:31:35;;;;;;;2.60;2.40;;;22.70;99.90;;;;;;5018688;28;20196;-57
2021/06/28 08:34:01;;;;;;;2.30;2.10;;;22.80;99.40;;;;;;5019871;28;20557;-57
2021/06/28 08:36:27;;;;;;;2.90;2.70;;;22.90;99.20;;;;;;5016015;28;20466;-56
2021/06/28 08:38:52;;;;;;;2.73;2.53;;;23.00;99.20;;;;;;5018164;28;20470;-58
2021/06/28 08:41:18;;;;;;;2.93;2.30;;;23.10;99.20;;;;;;5021087;28;20226;-56
2021/06/28 08:43:46;;;;;;;2.77;1.97;;;23.20;98.40;;;;;;5014929;28;20178;-57
2021/06/28 08:46:16;;;;;;;2.60;2.40;;;23.30;97.60;;;;;;5016689;28;20181;-56
2021/06/28 08:48:43;;;;;;;3.20;2.30;;;23.40;96.70;;;;;;5016263;28;20443;-56
2021/06/28 08:51:09;;;;;;;2.47;2.30;;;23.50;96.00;;;;;;5017731;28;20603;-58
2021/06/28 08:53:35;;;;;;;4.17;2.90;;;23.60;96.30;;;;;;5024167;28;20438;-56
2021/06/28 08:56:06;;;;;;;4.60;2.40;;;23.60;96.00;;;;;;5016770;28;20435;-56
2021/06/28 08:58:39;;;;;;;2.93;2.30;;;23.80;95.90;;;;;;5019531;28;20455;-56
2021/06/28 09:01:06;;;;;;;2.57;2.37;;;23.90;94.60;;;;;;5017078;28;20522;-57
2021/06/28 09:03:33;;;;;;;2.60;2.20;;;24.00;94.90;;;;;;5018802;28;20524;-57
2021/06/28 09:06:05;;;;;;;3.00;2.47;;;24.10;93.80;;;;;;5030496;28;20445;-57
2021/06/28 09:08:32;;;;;;;2.27;2.17;;;24.20;92.20;;;;;;5023814;28;20461;-58
2021/06/28 09:10:58;;;;;;;2.70;2.27;;;24.20;93.00;;;;;;5025337;28;20518;-57
2021/06/28 09:13:44;;;;;;;2.60;2.40;;;24.20;92.40;;;;;;5022135;28;20431;-56
2021/06/28 09:16:23;;;;;;;2.60;2.40;;;24.20;93.50;;;;;;5023855;28;20435;-57
2021/06/28 09:19:07;;;;;;;3.10;2.23;;;24.30;93.90;;;;;;5018354;28;22533;-56
2021/06/28 09:21:36;;;;;;;2.47;2.23;;;24.40;93.90;;;;;;5026689;28;20435;-57
2021/06/28 09:24:03;;;;;;;2.60;2.13;;;24.50;93.80;;;;;;5021866;28;20441;-57
2021/06/28 09:26:34;;;;;;;2.80;2.60;;;24.70;93.20;;;;;;5021984;28;20430;-54
2021/06/28 09:29:07;;;;;;;2.67;2.47;;;24.80;93.20;;;;;;5021308;28;20504;-58
2021/06/28 09:31:38;;;;;;;1.97;1.87;;;24.90;91.10;;;;;;5026048;28;20759;-57
2021/06/28 09:34:12;;;;;;;2.50;2.30;;;25.00;82.80;;;;;;5025508;28;20847;-57
2021/06/28 09:36:46;;;;;;;2.30;2.20;;;25.20;85.10;;;;;;5022987;28;20789;-57
2021/06/28 09:39:25;;;;;;;3.30;2.40;;;25.30;86.00;;;;;;5025495;28;20457;-55
2021/06/28 09:41:58;;;;;;;2.53;2.33;;;25.50;82.00;;;;;;5024393;28;20465;-58
2021/06/28 09:44:27;;;;;;;3.03;2.20;;;25.60;81.10;;;;;;5023246;28;20448;-57
2021/06/28 09:47:26;;;;;;;2.10;2.00;;;25.70;83.40;;;;;;5024684;28;20510;-56
2021/06/28 09:50:07;;;;;;;4.07;2.10;;;25.90;82.80;;;;;;5005384;28;20559;-57
2021/06/28 09:52:42;;;;;;;5.83;3.00;;;26.00;78.00;;;;;;5022992;28;20545;-56
2021/06/28 09:55:22;;;;;;;2.37;2.17;;;26.10;76.40;;;;;;5023940;28;20446;-56
2021/06/28 09:58:04;;;;;;;3.90;2.47;;;26.20;75.60;;;;;;5019190;28;20933;-55
2021/06/28 10:00:31;;;;;;;5.00;2.30;;;26.30;77.90;;;;;;5020538;28;20500;-57
2021/06/28 10:02:57;;;;;;;2.80;2.60;;;26.40;74.40;;;;;;5017820;28;20422;-57
2021/06/28 10:05:26;;;;;;;3.73;2.50;;;26.50;75.40;;;;;;5022802;28;20468;-57
2021/06/28 10:07:54;;;;;;;2.60;2.40;;;26.50;74.40;;;;;;5022576;28;21057;-56
2021/06/28 10:10:24;;;;;;;2.60;2.40;;;26.50;72.00;;;;;;5023295;28;20461;-57
2021/06/28 10:12:55;;;;;;;5.13;2.33;;;26.50;67.70;;;;;;5022400;28;20465;-56
2021/06/28 10:15:25;;;;;;;3.90;2.53;;;26.50;68.20;;;;;;5016353;28;20488;-56
2021/06/28 10:17:51;;;;;;;2.60;2.40;;;26.50;69.30;;;;;;5023450;28;21064;-56
2021/06/28 10:20:19;;;;;;;3.10;2.70;;;26.50;68.50;;;;;;5021381;28;20446;-57
2021/06/28 10:22:46;;;;;;;2.73;2.53;;;26.70;71.10;;;;;;5018511;28;20663;-57
2021/06/28 10:25:15;;;;;;;3.73;2.53;;;26.70;70.60;;;;;;5019999;28;20938;-56
2021/06/28 10:27:41;;;;;;;2.70;2.50;;;26.80;69.30;;;;;;5012421;28;20426;-55
2021/06/28 10:30:12;;;;;;;3.07;2.77;;;26.90;69.80;;;;;;5016500;28;20465;-55
2021/06/28 10:32:39;;;;;;;4.53;2.60;;;27.10;68.70;;;;;;5014932;28;20551;-56
2021/06/28 10:35:09;;;;;;;4.40;2.63;;;27.00;66.30;;;;;;5012332;28;20435;-56
2021/06/28 10:37:36;;;;;;;2.97;2.67;;;27.00;66.70;;;;;;5016929;28;21423;-58
2021/06/28 10:40:17;;;;;;;2.60;2.40;;;27.20;67.20;;;;;;5018888;28;20537;-57
2021/06/28 10:42:46;;;;;;;4.03;2.60;;;27.40;68.50;;;;;;5020388;28;20426;-58
2021/06/28 10:45:16;;;;;;;2.77;2.53;;;27.60;68.90;;;;;;5018110;28;20439;-58
2021/06/28 10:48:07;;;;;;;2.80;2.60;;;27.70;65.20;;;;;;5022003;28;20798;-58
2021/06/28 10:50:51;;;;;;;5.87;2.60;;;27.60;64.50;;;;;;5017369;28;20438;-58
2021/06/28 10:53:33;;;;;;;4.60;2.70;;;27.60;63.10;;;;;;5016540;28;21029;-56
2021/06/28 10:56:49;;;;;;;4.03;2.90;;;27.60;63.20;;;;;;5021689;28;20418;-56
2021/06/28 10:59:07;;;;;;;3.93;2.60;;;27.70;65.50;;;;;;5010312;28;20798;-58
2021/06/28 11:01:41;;;;;;;3.83;2.67;;;27.80;63.70;;;;;;5018399;28;20926;-58
2021/06/28 11:04:10;;;;;;;3.57;2.67;;;27.80;65.30;;;;;;5001158;28;20452;-57
2021/06/28 11:06:52;;;;;;;2.63;2.43;;;27.90;65.10;;;;;;5010118;28;20274;-56
2021/06/28 11:09:32;;;;;;;3.20;2.80;;;27.90;63.60;;;;;;5008961;28;20217;-55
2021/06/28 11:11:58;;;;;;;3.50;2.70;;;27.90;62.60;;;;;;5010717;28;20289;-57
2021/06/28 11:14:25;;;;;;;3.23;2.50;;;27.90;62.80;;;;;;5010443;28;20439;-57
2021/06/28 11:17:09;;;;;;;3.10;2.80;;;28.00;62.80;;;;;;5014613;28;20445;-58
2021/06/28 11:19:49;;;;;;;5.23;2.30;;;28.20;61.30;;;;;;5021107;28;21462;-56
2021/06/28 11:22:35;;;;;;;5.10;3.60;;;28.40;60.20;;;;;;5025031;28;20175;-60
2021/06/28 11:25:13;;;;;;;6.33;2.60;;;28.60;59.40;;;;;;5021014;28;20209;-59
2021/06/28 11:27:38;;;;;;;4.63;2.63;;;28.80;60.80;;;;;;5016427;28;20675;-59
2021/06/28 11:30:18;;;;;;;2.70;2.50;;;28.80;60.30;;;;;;5011729;28;20238;-57
2021/06/28 11:33:04;;;;;;;6.87;2.63;;;28.70;58.90;;;;;;5011239;28;20199;-57
2021/06/28 11:35:42;;;;;;;2.37;2.17;;;28.70;60.00;;;;;;5015175;28;20179;-61
2021/06/28 11:38:35;;;;;;;3.07;2.70;;;28.80;57.30;;;;;;5005151;28;20167;-58
2021/06/28 11:41:10;;;;;;;3.30;3.00;;;29.00;56.70;;;;;;5016772;28;20183;-59
2021/06/28 11:43:55;;;;;;;3.73;3.03;;;29.10;56.30;;;;;;5014864;28;20179;-58
2021/06/28 11:46:30;;;;;;;72.00;9.33;;;29.20;55.10;;;;;;5014906;28;20305;-57
2021/06/28 11:49:08;;;;;;;5.53;3.20;;;29.10;54.20;;;;;;5018082;28;20199;-57
2021/06/28 11:51:47;;;;;;;3.87;2.97;;;29.10;51.70;;;;;;5012918;28;20257;-58
2021/06/28 11:54:17;;;;;;;5.90;3.43;;;29.20;54.80;;;;;;5015784;28;20206;-58
2021/06/28 11:56:45;;;;;;;3.10;2.80;;;29.40;56.20;;;;;;5023407;28;20190;-59
2021/06/28 11:59:16;;;;;;;3.70;3.20;;;29.40;56.60;;;;;;5023183;28;20192;-58
2021/06/28 12:01:50;;;;;;;4.40;2.93;;;29.40;56.10;;;;;;5017486;28;20213;-58
2021/06/28 12:04:19;;;;;;;5.03;2.83;;;29.30;53.40;;;;;;5016041;28;20179;-59
2021/06/28 12:06:46;;;;;;;3.37;3.07;;;29.20;53.90;;;;;;5022694;28;20480;-59
2021/06/28 12:09:28;;;;;;;3.50;3.20;;;29.30;54.80;;;;;;5011911;28;20194;-59
2021/06/28 12:11:57;;;;;;;3.37;3.07;;;29.40;56.30;;;;;;5012698;28;20851;-59
2021/06/28 12:14:28;;;;;;;3.20;2.90;;;29.60;56.00;;;;;;5013101;28;20163;-58
2021/06/28 12:16:54;;;;;;;3.27;3.00;;;29.80;54.90;;;;;;5018520;28;20199;-59
2021/06/28 12:19:20;;;;;;;3.80;3.20;;;30.00;54.80;;;;;;5013392;28;20192;-58
2021/06/28 12:21:45;;;;;;;3.27;2.97;;;30.00;55.30;;;;;;5023196;28;20183;-58
2021/06/28 12:24:17;;;;;;;3.30;3.00;;;30.10;56.10;;;;;;5019070;28;20198;-58
2021/06/28 12:27:07;;;;;;;5.07;3.10;;;30.30;55.60;;;;;;5016219;28;20194;-58
2021/06/28 12:29:39;;;;;;;4.70;3.35;;;30.60;54.80;;;;;;5016093;28;20553;-59
2021/06/28 12:32:12;;;;;;;4.63;3.65;;;30.70;52.70;;;;;;5022633;28;20256;-60
2021/06/28 12:34:39;;;;;;;3.17;2.97;;;30.60;52.80;;;;;;5021173;28;20182;-59
2021/06/28 12:37:06;;;;;;;5.43;3.22;;;30.40;53.10;;;;;;5023462;28;20191;-59
2021/06/28 12:39:32;;;;;;;4.68;3.13;;;30.20;52.10;;;;;;5026754;28;20282;-60
2021/06/28 12:42:22;;;;;;;5.32;3.13;;;30.10;52.70;;;;;;5024613;28;20234;-61
2021/06/28 12:44:50;;;;;;;9.60;3.20;;;30.10;53.10;;;;;;5027442;28;20553;-60
2021/06/28 12:47:19;;;;;;;4.72;3.20;;;30.00;54.10;;;;;;5018790;28;20176;-60
2021/06/28 12:49:46;;;;;;;4.15;3.67;;;29.80;54.50;;;;;;5017560;28;20274;-60
2021/06/28 12:52:28;;;;;;;6.65;3.60;;;29.70;53.60;;;;;;5016248;28;20342;-60
2021/06/28 12:55:03;;;;;;;4.43;3.40;;;29.80;54.60;;;;;;5024506;28;20194;-60
2021/06/28 12:57:30;;;;;;;5.80;5.05;;;29.90;54.80;;;;;;5022636;28;20175;-59
2021/06/28 12:59:56;;;;;;;7.45;5.60;;;29.80;54.10;;;;;;5021403;28;20187;-60
2021/06/28 13:02:34;;;;;;;4.20;3.80;;;29.70;53.40;;;;;;5023575;28;20241;-60
2021/06/28 13:05:10;;;;;;;6.93;3.65;;;29.50;54.20;;;;;;5013782;28;20257;-59
2021/06/28 13:07:37;;;;;;;3.43;3.07;;;29.40;53.70;;;;;;5024473;28;20175;-59
2021/06/28 13:10:08;;;;;;;3.97;3.30;;;29.30;55.20;;;;;;5017613;28;20290;-60
2021/06/28 13:12:34;;;;;;;3.70;3.10;;;29.20;55.20;;;;;;5019567;28;20203;-59
2021/06/28 13:15:22;;;;;;;3.30;3.00;;;29.20;55.80;;;;;;5021298;28;20202;-58
2021/06/28 13:17:58;;;;;;;5.10;3.33;;;29.20;55.20;;;;;;5022199;28;20313;-59
2021/06/28 13:20:30;;;;;;;4.10;3.80;;;29.20;54.30;;;;;;5026125;28;20195;-59
2021/06/28 13:22:56;;;;;;;3.83;3.50;;;29.30;54.10;;;;;;5025893;28;20202;-59
2021/06/28 13:25:24;;;;;;;4.43;3.20;;;29.40;55.20;;;;;;5020511;28;21005;-59
2021/06/28 13:27:51;;;;;;;5.43;3.35;;;29.50;52.50;;;;;;5022790;28;20186;-58